createdAt,value
2023-04-18T00:00:16.104Z,102567.72
2023-04-18T00:00:49.341Z,102565.38
2023-04-18T00:01:21.638Z,102564.25
2023-04-18T00:01:53.335Z,102560.91
2023-04-18T00:02:26.110Z,102558.94
2023-04-18T00:02:59.264Z,102562.03
2023-04-18T00:03:33.296Z,102561.59
2023-04-18T00:04:05.584Z,102560.63
2023-04-18T00:04:37.622Z,102559.25
2023-04-18T00:05:09.756Z,102557.44
2023-04-18T00:05:41.982Z,102559.41
2023-04-18T00:06:14.132Z,102557.59
2023-04-18T00:06:47.215Z,102562.03
2023-04-18T00:07:18.761Z,102566.78
2023-04-18T00:07:51.379Z,102561.25
2023-04-18T00:08:22.875Z,102563.06
2023-04-18T00:08:54.391Z,102555.28
2023-04-18T00:09:26.067Z,102558.75
2023-04-18T00:09:57.827Z,102571.28
2023-04-18T00:10:29.380Z,102567.28
2023-04-18T00:11:00.912Z,102562.94
2023-04-18T00:11:32.496Z,102560.72
2023-04-18T00:12:04.923Z,102555.56
2023-04-18T00:12:36.756Z,102559.88
2023-04-18T00:13:08.277Z,102560.84
2023-04-18T00:13:40.533Z,102555.13
2023-04-18T00:14:12.381Z,102565.03
2023-04-18T00:14:44.248Z,102562.38
2023-04-18T00:15:18.958Z,102560.97
2023-04-18T00:15:54.162Z,102559.28
2023-04-18T00:16:25.771Z,102559.28
2023-04-18T00:16:57.573Z,102564.16
2023-04-18T00:17:30.340Z,102556.50
2023-04-18T00:18:03.748Z,102562.91
2023-04-18T00:18:36.964Z,102559.28
2023-04-18T00:19:08.779Z,102557.38
2023-04-18T00:19:43.306Z,102553.75
2023-04-18T00:20:15.034Z,102557.38
2023-04-18T00:20:46.972Z,102560.72
2023-04-18T00:21:18.937Z,102555.97
2023-04-18T00:21:53.157Z,102555.81
2023-04-18T00:22:25.561Z,102562.81
2023-04-18T00:22:57.116Z,102563.66
2023-04-18T00:23:30.259Z,102561.84
2023-04-18T00:24:02.054Z,102557.25
2023-04-18T00:24:33.761Z,102563.81
2023-04-18T00:25:05.688Z,102554.88
2023-04-18T00:25:37.204Z,102562.97
2023-04-18T00:26:09.166Z,102559.88
2023-04-18T00:26:40.844Z,102563.50
2023-04-18T00:27:13.012Z,102561.00
2023-04-18T00:27:44.616Z,102561.84
2023-04-18T00:28:16.183Z,102565.19
2023-04-18T00:28:47.702Z,102563.81
2023-04-18T00:29:19.290Z,102564.34
2023-04-18T00:29:50.861Z,102560.72
2023-04-18T00:30:22.454Z,102558.50
2023-04-18T00:30:54.041Z,102560.19
2023-04-18T00:31:26.052Z,102563.50
2023-04-18T00:31:58.072Z,102558.06
2023-04-18T00:32:29.684Z,102562.00
2023-04-18T00:33:04.485Z,102558.22
2023-04-18T00:33:36.113Z,102556.00
2023-04-18T00:34:07.649Z,102563.94
2023-04-18T00:34:40.429Z,102566.00
2023-04-18T00:35:11.991Z,102567.00
2023-04-18T00:35:43.673Z,102565.75
2023-04-18T00:36:15.209Z,102562.38
2023-04-18T00:36:46.732Z,102567.00
2023-04-18T00:37:18.253Z,102564.63
2023-04-18T00:37:49.876Z,102572.84
2023-04-18T00:38:21.377Z,102571.88
2023-04-18T00:38:52.996Z,102567.69
2023-04-18T00:39:24.514Z,102560.72
2023-04-18T00:39:56.123Z,102567.97
2023-04-18T00:40:27.676Z,102569.25
2023-04-18T00:40:59.263Z,102571.88
2023-04-18T00:41:31.315Z,102562.00
2023-04-18T00:42:04.061Z,102569.25
2023-04-18T00:42:35.609Z,102565.91
2023-04-18T00:43:08.087Z,102562.56
2023-04-18T00:43:39.661Z,102565.75
2023-04-18T00:44:11.347Z,102571.19
2023-04-18T00:44:43.026Z,102561.88
2023-04-18T00:45:14.727Z,102564.63
2023-04-18T00:45:46.383Z,102562.97
2023-04-18T00:46:18.026Z,102560.75
2023-04-18T00:46:49.695Z,102557.97
2023-04-18T00:47:21.333Z,102556.03
2023-04-18T00:47:53.323Z,102562.56
2023-04-18T00:48:24.900Z,102559.94
2023-04-18T00:48:58.777Z,102565.91
2023-04-18T00:49:30.835Z,102568.28
2023-04-18T00:50:02.523Z,102568.28
2023-04-18T00:50:34.104Z,102564.66
2023-04-18T00:51:07.627Z,102557.28
2023-04-18T00:51:39.968Z,102564.66
2023-04-18T00:52:14.783Z,102563.28
2023-04-18T00:52:47.100Z,102563.44
2023-04-18T00:53:18.642Z,102559.94
2023-04-18T00:53:50.740Z,102554.09
2023-04-18T00:54:22.706Z,102554.22
2023-04-18T00:54:54.644Z,102552.41
2023-04-18T00:55:26.185Z,102555.50
2023-04-18T00:55:57.900Z,102560.78
2023-04-18T00:56:29.875Z,102554.38
2023-04-18T00:57:02.864Z,102555.34
2023-04-18T00:57:34.638Z,102555.06
2023-04-18T00:58:07.616Z,102553.53
2023-04-18T00:58:40.938Z,102559.13
2023-04-18T00:59:13.541Z,102550.50
2023-04-18T00:59:46.734Z,102554.94
2023-04-18T01:00:18.492Z,102550.34
2023-04-18T01:00:50.261Z,102553.81
2023-04-18T01:01:22.116Z,102554.94
2023-04-18T01:01:53.980Z,102552.31
2023-04-18T01:02:26.460Z,102557.44
2023-04-18T01:02:59.297Z,102554.69
2023-04-18T01:03:32.713Z,102552.03
2023-04-18T01:04:04.567Z,102551.59
2023-04-18T01:04:37.302Z,102556.88
2023-04-18T01:05:09.138Z,102554.38
2023-04-18T01:05:42.188Z,102549.09
2023-04-18T01:06:13.910Z,102553.41
2023-04-18T01:06:45.745Z,102556.59
2023-04-18T01:07:17.552Z,102560.22
2023-04-18T01:07:49.359Z,102549.09
2023-04-18T01:08:21.998Z,102550.63
2023-04-18T01:08:56.455Z,102554.69
2023-04-18T01:09:29.935Z,102559.13
2023-04-18T01:10:02.180Z,102550.22
2023-04-18T01:10:33.947Z,102553.84
2023-04-18T01:11:05.668Z,102557.72
2023-04-18T01:11:37.257Z,102553.56
2023-04-18T01:12:08.770Z,102557.88
2023-04-18T01:12:41.006Z,102559.66
2023-04-18T01:13:14.297Z,102570.81
2023-04-18T01:14:02.918Z,102558.03
2023-04-18T01:14:34.458Z,102553.56
2023-04-18T01:15:08.476Z,102561.09
2023-04-18T01:15:42.717Z,102556.38
2023-04-18T01:16:14.392Z,102563.88
2023-04-18T01:16:46.364Z,102561.63
2023-04-18T01:17:19.283Z,102559.69
2023-04-18T01:17:52.427Z,102556.09
2023-04-18T01:18:25.507Z,102559.69
2023-04-18T01:18:57.218Z,102563.31
2023-04-18T01:19:28.737Z,102560.09
2023-04-18T01:20:04.957Z,102558.56
2023-04-18T01:20:45.812Z,102556.91
2023-04-18T01:21:18.193Z,102560.22
2023-04-18T01:21:54.351Z,102555.91
2023-04-18T01:22:26.887Z,102553.56
2023-04-18T01:22:58.849Z,102557.59
2023-04-18T01:23:30.726Z,102558.56
2023-04-18T01:24:12.974Z,102549.38
2023-04-18T01:24:49.276Z,102556.34
2023-04-18T01:25:21.907Z,102553.84
2023-04-18T01:25:53.410Z,102557.16
2023-04-18T01:26:24.963Z,102552.88
2023-04-18T01:26:57.238Z,102555.78
2023-04-18T01:27:28.917Z,102553.00
2023-04-18T01:28:00.902Z,102553.56
2023-04-18T01:28:36.525Z,102553.16
2023-04-18T01:29:08.103Z,102554.41
2023-04-18T01:29:40.008Z,102552.44
2023-04-18T01:30:11.904Z,102546.19
2023-04-18T01:30:43.594Z,102549.38
2023-04-18T01:31:15.338Z,102551.88
2023-04-18T01:31:47.135Z,102543.69
2023-04-18T01:32:21.270Z,102551.06
2023-04-18T01:32:52.892Z,102546.47
2023-04-18T01:33:24.550Z,102550.38
2023-04-18T01:33:56.085Z,102543.28
2023-04-18T01:34:27.845Z,102551.75
2023-04-18T01:34:59.370Z,102548.13
2023-04-18T01:35:32.992Z,102551.75
2023-04-18T01:36:04.864Z,102546.06
2023-04-18T01:36:38.912Z,102546.88
2023-04-18T01:37:10.440Z,102553.28
2023-04-18T01:37:41.976Z,102548.97
2023-04-18T01:38:13.561Z,102548.00
2023-04-18T01:38:45.163Z,102544.78
2023-04-18T01:39:18.357Z,102548.25
2023-04-18T01:39:50.426Z,102551.34
2023-04-18T01:40:24.436Z,102536.59
2023-04-18T01:40:56.450Z,102536.31
2023-04-18T01:41:32.473Z,102540.91
2023-04-18T01:42:04.547Z,102540.91
2023-04-18T01:42:36.151Z,102543.81
2023-04-18T01:43:07.706Z,102544.25
2023-04-18T01:43:42.385Z,102549.13
2023-04-18T01:44:14.562Z,102543.84
2023-04-18T01:44:46.306Z,102549.13
2023-04-18T01:45:19.418Z,102549.13
2023-04-18T01:45:51.326Z,102545.50
2023-04-18T01:46:22.953Z,102546.34
2023-04-18T01:46:54.693Z,102548.84
2023-04-18T01:47:26.396Z,102543.84
2023-04-18T01:47:57.954Z,102548.69
2023-04-18T01:48:29.563Z,102547.72
2023-04-18T01:49:01.130Z,102547.72
2023-04-18T01:49:32.802Z,102551.06
2023-04-18T01:50:04.774Z,102552.72
2023-04-18T01:50:36.304Z,102550.78
2023-04-18T01:51:08.083Z,102552.03
2023-04-18T01:51:39.620Z,102548.41
2023-04-18T01:52:14.245Z,102553.00
2023-04-18T01:52:45.924Z,102551.19
2023-04-18T01:53:17.939Z,102545.91
2023-04-18T01:53:49.713Z,102546.06
2023-04-18T01:54:21.241Z,102547.16
2023-04-18T01:54:52.842Z,102548.00
2023-04-18T01:55:24.443Z,102548.00
2023-04-18T01:55:57.687Z,102546.06
2023-04-18T01:56:29.202Z,102548.84
2023-04-18T01:57:03.428Z,102548.84
2023-04-18T01:57:36.780Z,102549.41
2023-04-18T01:58:08.320Z,102545.38
2023-04-18T01:58:41.718Z,102548.97
2023-04-18T01:59:13.335Z,102548.25
2023-04-18T01:59:44.856Z,102553.81
2023-04-18T02:00:16.764Z,102553.28
2023-04-18T02:00:48.806Z,102550.19
2023-04-18T02:01:20.529Z,102545.19
2023-04-18T02:01:52.679Z,102548.53
2023-04-18T02:02:24.416Z,102552.13
2023-04-18T02:02:59.012Z,102548.81
2023-04-18T02:03:31.149Z,102551.16
2023-04-18T02:04:02.762Z,102552.84
2023-04-18T02:04:34.324Z,102552.00
2023-04-18T02:05:06.716Z,102547.41
2023-04-18T02:05:38.385Z,102549.13
2023-04-18T02:06:12.541Z,102554.09
2023-04-18T02:06:44.131Z,102551.59
2023-04-18T02:07:15.802Z,102546.44
2023-04-18T02:07:49.263Z,102553.38
2023-04-18T02:08:20.812Z,102548.09
2023-04-18T02:08:52.336Z,102550.34
2023-04-18T02:09:23.961Z,102549.91
2023-04-18T02:09:55.581Z,102553.53
2023-04-18T02:10:27.154Z,102549.09
2023-04-18T02:10:59.017Z,102551.84
2023-04-18T02:11:30.624Z,102559.91
2023-04-18T02:12:02.728Z,102556.59
2023-04-18T02:12:34.367Z,102549.63
2023-04-18T02:13:06.849Z,102562.84
2023-04-18T02:13:38.431Z,102556.84
2023-04-18T02:14:11.925Z,102551.72
2023-04-18T02:14:43.836Z,102546.28
2023-04-18T02:15:15.606Z,102551.31
2023-04-18T02:15:47.135Z,102550.47
2023-04-18T02:16:19.786Z,102557.41
2023-04-18T02:16:51.419Z,102552.00
2023-04-18T02:17:23.700Z,102551.31
2023-04-18T02:17:55.508Z,102554.78
2023-04-18T02:18:28.382Z,102551.84
2023-04-18T02:19:00.217Z,102546.84
2023-04-18T02:19:31.756Z,102559.34
2023-04-18T02:20:03.793Z,102548.19
2023-04-18T02:20:36.346Z,102558.75
2023-04-18T02:21:09.553Z,102556.56
2023-04-18T02:21:41.942Z,102550.59
2023-04-18T02:22:13.559Z,102554.06
2023-04-18T02:22:47.877Z,102550.47
2023-04-18T02:23:19.487Z,102552.41
2023-04-18T02:23:52.411Z,102556.72
2023-04-18T02:24:26.719Z,102554.06
2023-04-18T02:24:58.239Z,102554.06
2023-04-18T02:25:30.356Z,102554.06
2023-04-18T02:26:01.905Z,102556.28
2023-04-18T02:26:33.429Z,102550.03
2023-04-18T02:27:05.256Z,102553.66
2023-04-18T02:27:36.808Z,102556.03
2023-04-18T02:28:08.338Z,102555.19
2023-04-18T02:28:40.103Z,102550.59
2023-04-18T02:29:11.829Z,102551.31
2023-04-18T02:29:43.358Z,102560.06
2023-04-18T02:30:15.104Z,102549.34
2023-04-18T02:30:46.603Z,102552.13
2023-04-18T02:31:20.976Z,102550.19
2023-04-18T02:31:52.588Z,102552.41
2023-04-18T02:32:24.162Z,102553.81
2023-04-18T02:32:59.368Z,102549.13
2023-04-18T02:33:30.975Z,102548.00
2023-04-18T02:34:02.535Z,102549.66
2023-04-18T02:34:34.117Z,102549.66
2023-04-18T02:35:05.975Z,102555.94
2023-04-18T02:35:38.109Z,102548.00
2023-04-18T02:36:10.678Z,102547.03
2023-04-18T02:36:43.101Z,102548.56
2023-04-18T02:37:15.291Z,102549.13
2023-04-18T02:37:47.041Z,102552.59
2023-04-18T02:38:18.565Z,102550.50
2023-04-18T02:38:50.099Z,102551.34
2023-04-18T02:39:24.791Z,102556.47
2023-04-18T02:39:56.947Z,102552.88
2023-04-18T02:40:28.479Z,102557.03
2023-04-18T02:41:00.007Z,102554.94
2023-04-18T02:41:31.844Z,102554.94
2023-04-18T02:42:03.473Z,102556.63
2023-04-18T02:42:34.991Z,102552.16
2023-04-18T02:43:06.744Z,102557.88
2023-04-18T02:43:38.287Z,102555.25
2023-04-18T02:44:10.027Z,102543.56
2023-04-18T02:44:43.761Z,102556.78
2023-04-18T02:45:15.364Z,102557.47
2023-04-18T02:45:47.000Z,102550.53
2023-04-18T02:46:19.319Z,102553.84
2023-04-18T02:46:55.226Z,102553.56
2023-04-18T02:47:27.041Z,102547.31
2023-04-18T02:47:58.854Z,102542.72
2023-04-18T02:48:30.527Z,102532.97
2023-04-18T02:49:02.246Z,102542.44
2023-04-18T02:49:33.782Z,102541.75
2023-04-18T02:50:06.460Z,102545.06
2023-04-18T02:50:38.538Z,102544.94
2023-04-18T02:51:10.200Z,102546.47
2023-04-18T02:51:42.901Z,102547.44
2023-04-18T02:52:14.866Z,102547.44
2023-04-18T02:52:46.506Z,102552.44
2023-04-18T02:53:18.108Z,102539.91
2023-04-18T02:53:58.714Z,102545.19
2023-04-18T02:54:35.599Z,102543.81
2023-04-18T02:55:14.522Z,102536.88
2023-04-18T02:55:48.212Z,102540.19
2023-04-18T02:56:21.749Z,102540.88
2023-04-18T02:57:20.170Z,102548.81
2023-04-18T02:58:17.707Z,102548.56
2023-04-18T02:59:10.665Z,102556.06
2023-04-18T02:59:59.765Z,102551.06
2023-04-18T03:00:55.466Z,102551.88
2023-04-18T03:01:51.158Z,102555.50
2023-04-18T03:02:25.444Z,102547.44
2023-04-18T03:03:01.510Z,102558.00
2023-04-18T03:03:55.854Z,102554.38
2023-04-18T03:04:38.384Z,102547.16
2023-04-18T03:05:12.710Z,102551.47
2023-04-18T03:05:44.292Z,102553.84
2023-04-18T03:06:16.040Z,102554.69
2023-04-18T03:06:48.334Z,102555.63
2023-04-18T03:07:20.554Z,102553.84
2023-04-18T03:07:54.148Z,102560.81
2023-04-18T03:08:25.917Z,102558.03
2023-04-18T03:08:58.890Z,102553.28
2023-04-18T03:09:30.810Z,102553.28
2023-04-18T03:10:07.437Z,102561.34
2023-04-18T03:10:41.296Z,102554.25
2023-04-18T03:11:13.244Z,102555.22
2023-04-18T03:11:44.985Z,102557.59
2023-04-18T03:12:16.804Z,102559.25
2023-04-18T03:12:48.484Z,102558.56
2023-04-18T03:13:21.806Z,102553.56
2023-04-18T03:13:53.777Z,102549.94
2023-04-18T03:14:27.139Z,102548.00
2023-04-18T03:15:00.387Z,102554.25
2023-04-18T03:15:32.544Z,102553.56
2023-04-18T03:16:04.452Z,102558.44
2023-04-18T03:16:36.792Z,102548.84
2023-04-18T03:17:10.284Z,102554.66
2023-04-18T03:17:45.698Z,102556.63
2023-04-18T03:18:18.362Z,102554.94
2023-04-18T03:18:50.330Z,102548.69
2023-04-18T03:19:22.368Z,102548.53
2023-04-18T03:19:55.821Z,102554.53
2023-04-18T03:20:28.311Z,102548.25
2023-04-18T03:20:59.927Z,102549.09
2023-04-18T03:21:33.574Z,102548.25
2023-04-18T03:22:05.998Z,102549.38
2023-04-18T03:22:39.394Z,102542.97
2023-04-18T03:23:11.300Z,102546.59
2023-04-18T03:23:43.725Z,102544.09
2023-04-18T03:24:15.923Z,102551.03
2023-04-18T03:24:51.472Z,102547.13
2023-04-18T03:25:24.496Z,102543.81
2023-04-18T03:26:00.137Z,102549.78
2023-04-18T03:26:34.986Z,102545.19
2023-04-18T03:27:06.698Z,102547.13
2023-04-18T03:27:39.046Z,102545.47
2023-04-18T03:28:10.676Z,102548.81
2023-04-18T03:28:42.277Z,102561.72
2023-04-18T03:29:14.119Z,102547.53
2023-04-18T03:29:48.580Z,102559.22
2023-04-18T03:30:20.715Z,102548.50
2023-04-18T03:30:59.095Z,102553.13
2023-04-18T03:31:32.062Z,102552.97
2023-04-18T03:32:03.770Z,102554.91
2023-04-18T03:32:36.381Z,102554.78
2023-04-18T03:33:08.684Z,102550.19
2023-04-18T03:33:42.433Z,102553.50
2023-04-18T03:34:15.642Z,102552.13
2023-04-18T03:34:48.860Z,102555.06
2023-04-18T03:35:20.817Z,102558.69
2023-04-18T03:35:52.390Z,102553.25
2023-04-18T03:36:25.451Z,102556.72
2023-04-18T03:36:58.670Z,102554.78
2023-04-18T03:37:32.233Z,102552.81
2023-04-18T03:38:04.867Z,102551.84
2023-04-18T03:38:41.623Z,102555.63
2023-04-18T03:39:13.672Z,102558.81
2023-04-18T03:39:45.544Z,102558.13
2023-04-18T03:40:19.016Z,102560.75
2023-04-18T03:40:52.319Z,102554.63
2023-04-18T03:41:30.064Z,102562.44
2023-04-18T03:42:02.586Z,102554.50
2023-04-18T03:42:34.640Z,102556.31
2023-04-18T03:43:06.174Z,102551.84
2023-04-18T03:43:37.723Z,102555.47
2023-04-18T03:44:09.343Z,102553.81
2023-04-18T03:44:42.577Z,102551.00
2023-04-18T03:45:14.373Z,102558.81
2023-04-18T03:45:47.483Z,102555.47
2023-04-18T03:46:22.027Z,102543.78
2023-04-18T03:46:57.301Z,102560.19
2023-04-18T03:47:31.483Z,102552.25
2023-04-18T03:48:04.396Z,102555.19
2023-04-18T03:48:40.072Z,102558.50
2023-04-18T03:49:14.306Z,102560.31
2023-04-18T03:49:46.164Z,102556.84
2023-04-18T03:50:17.916Z,102561.00
2023-04-18T03:50:51.111Z,102563.81
2023-04-18T03:51:22.804Z,102556.00
2023-04-18T03:51:54.316Z,102558.50
2023-04-18T03:52:27.051Z,102553.22
2023-04-18T03:53:00.741Z,102557.53
2023-04-18T03:53:36.048Z,102563.81
2023-04-18T03:54:07.828Z,102560.19
2023-04-18T03:54:39.347Z,102561.16
2023-04-18T03:55:11.474Z,102560.19
2023-04-18T03:55:43.543Z,102555.88
2023-04-18T03:56:17.520Z,102559.25
2023-04-18T03:56:54.189Z,102554.91
2023-04-18T03:57:26.335Z,102557.53
2023-04-18T03:57:59.193Z,102554.63
2023-04-18T03:58:33.676Z,102562.56
2023-04-18T03:59:05.269Z,102559.94
2023-04-18T03:59:37.083Z,102552.00
2023-04-18T04:00:10.422Z,102552.97
2023-04-18T04:00:47.676Z,102547.78
2023-04-18T04:01:19.216Z,102555.63
2023-04-18T04:01:50.784Z,102563.81
2023-04-18T04:02:23.417Z,102554.19
2023-04-18T04:02:55.561Z,102552.41
2023-04-18T04:03:27.930Z,102549.59
2023-04-18T04:04:01.741Z,102558.25
2023-04-18T04:04:33.932Z,102553.22
2023-04-18T04:05:05.795Z,102553.22
2023-04-18T04:05:38.367Z,102558.50
2023-04-18T04:06:10.338Z,102551.31
2023-04-18T04:06:41.954Z,102553.22
2023-04-18T04:07:13.829Z,102558.50
2023-04-18T04:07:45.516Z,102555.03
2023-04-18T04:08:17.886Z,102558.50
2023-04-18T04:08:50.624Z,102554.06
2023-04-18T04:09:26.951Z,102561.16
2023-04-18T04:09:58.728Z,102556.00
2023-04-18T04:10:30.316Z,102556.84
2023-04-18T04:11:02.958Z,102560.19
2023-04-18T04:11:34.612Z,102555.72
2023-04-18T04:12:06.384Z,102553.22
2023-04-18T04:12:38.549Z,102561.16
2023-04-18T04:13:11.019Z,102556.59
2023-04-18T04:13:44.638Z,102556.59
2023-04-18T04:14:17.779Z,102550.59
2023-04-18T04:14:51.110Z,102559.50
2023-04-18T04:15:22.844Z,102557.81
2023-04-18T04:16:05.942Z,102549.59
2023-04-18T04:16:38.633Z,102557.97
2023-04-18T04:17:11.187Z,102553.50
2023-04-18T04:17:44.053Z,102553.50
2023-04-18T04:18:16.295Z,102551.84
2023-04-18T04:18:48.858Z,102556.84
2023-04-18T04:19:20.807Z,102555.19
2023-04-18T04:19:59.794Z,102554.34
2023-04-18T04:20:33.176Z,102551.84
2023-04-18T04:21:13.081Z,102548.81
2023-04-18T04:21:50.609Z,102552.13
2023-04-18T04:22:22.448Z,102559.38
2023-04-18T04:22:55.265Z,102549.09
2023-04-18T04:23:27.253Z,102556.31
2023-04-18T04:23:58.832Z,102544.78
2023-04-18T04:24:57.808Z,102544.09
2023-04-18T04:25:35.276Z,102553.00
2023-04-18T04:26:14.720Z,102554.81
2023-04-18T04:26:53.092Z,102557.88
2023-04-18T04:27:28.104Z,102546.03
2023-04-18T04:28:01.492Z,102546.63
2023-04-18T04:28:33.880Z,102553.84
2023-04-18T04:29:10.197Z,102547.84
2023-04-18T04:29:43.789Z,102559.13
2023-04-18T04:30:15.655Z,102548.56
2023-04-18T04:30:47.399Z,102550.78
2023-04-18T04:31:19.892Z,102552.16
2023-04-18T04:31:51.942Z,102552.59
2023-04-18T04:32:33.024Z,102559.25
2023-04-18T04:33:06.609Z,102559.94
2023-04-18T04:33:39.002Z,102550.34
2023-04-18T04:34:16.932Z,102559.69
2023-04-18T04:34:49.485Z,102561.50
2023-04-18T04:35:21.258Z,102559.69
2023-04-18T04:35:52.971Z,102553.13
2023-04-18T04:36:27.227Z,102554.94
2023-04-18T04:37:01.419Z,102562.03
2023-04-18T04:37:34.682Z,102550.63
2023-04-18T04:38:16.729Z,102561.34
2023-04-18T04:38:52.585Z,102565.13
2023-04-18T04:39:31.386Z,102562.19
2023-04-18T04:40:29.145Z,102564.44
2023-04-18T04:41:09.309Z,102562.19
2023-04-18T04:41:41.462Z,102564.13
2023-04-18T04:42:13.657Z,102557.72
2023-04-18T04:42:56.166Z,102555.78
2023-04-18T04:43:34.252Z,102559.13
2023-04-18T04:44:06.762Z,102564.13
2023-04-18T04:44:41.575Z,102566.63
2023-04-18T04:45:13.799Z,102557.19
2023-04-18T04:45:45.531Z,102566.63
2023-04-18T04:46:20.027Z,102561.50
2023-04-18T04:46:54.518Z,102578.03
2023-04-18T04:47:35.603Z,102573.72
2023-04-18T04:48:11.071Z,102568.44
2023-04-18T04:48:42.669Z,102570.81
2023-04-18T04:49:14.290Z,102572.63
2023-04-18T04:49:47.092Z,102571.94
2023-04-18T04:50:18.740Z,102575.94
2023-04-18T04:50:57.477Z,102571.06
2023-04-18T04:51:29.073Z,102573.84
2023-04-18T04:52:04.510Z,102571.91
2023-04-18T04:52:36.527Z,102575.25
2023-04-18T04:53:08.768Z,102576.75
2023-04-18T04:53:40.511Z,102585.66
2023-04-18T04:54:12.736Z,102571.34
2023-04-18T04:54:45.927Z,102577.59
2023-04-18T04:55:20.083Z,102579.94
2023-04-18T04:55:51.862Z,102579.94
2023-04-18T04:56:23.828Z,102583.28
2023-04-18T04:56:55.382Z,102578.00
2023-04-18T04:57:27.137Z,102575.66
2023-04-18T04:57:58.932Z,102582.88
2023-04-18T04:58:47.352Z,102576.34
2023-04-18T04:59:24.236Z,102580.50
2023-04-18T04:59:55.999Z,102568.41
2023-04-18T05:00:28.841Z,102575.50
2023-04-18T05:01:00.735Z,102577.75
2023-04-18T05:01:32.432Z,102579.13
2023-04-18T05:02:04.229Z,102579.13
2023-04-18T05:02:36.077Z,102575.78
2023-04-18T05:03:08.339Z,102579.13
2023-04-18T05:03:40.744Z,102580.94
2023-04-18T05:04:12.896Z,102585.09
2023-04-18T05:04:44.736Z,102584.13
2023-04-18T05:05:16.305Z,102578.56
2023-04-18T05:05:50.611Z,102586.78
2023-04-18T05:06:22.764Z,102582.47
2023-04-18T05:06:54.365Z,102584.13
2023-04-18T05:07:26.019Z,102584.97
2023-04-18T05:07:57.651Z,102579.38
2023-04-18T05:08:29.222Z,102581.88
2023-04-18T05:09:01.198Z,102583.44
2023-04-18T05:09:32.758Z,102576.34
2023-04-18T05:10:04.533Z,102591.91
2023-04-18T05:10:39.072Z,102596.38
2023-04-18T05:11:10.592Z,102585.66
2023-04-18T05:11:42.107Z,102579.38
2023-04-18T05:12:13.679Z,102587.16
2023-04-18T05:12:45.271Z,102582.72
2023-04-18T05:13:17.159Z,102584.66
2023-04-18T05:13:48.702Z,102585.50
2023-04-18T05:14:20.871Z,102589.97
2023-04-18T05:14:52.364Z,102581.06
2023-04-18T05:15:24.720Z,102580.22
2023-04-18T05:15:56.729Z,102583.69
2023-04-18T05:16:28.305Z,102591.34
2023-04-18T05:17:00.259Z,102586.06
2023-04-18T05:17:31.928Z,102582.16
2023-04-18T05:18:03.735Z,102589.38
2023-04-18T05:18:39.095Z,102587.72
2023-04-18T05:19:10.943Z,102585.06
2023-04-18T05:19:44.266Z,102587.72
2023-04-18T05:20:16.060Z,102589.38
2023-04-18T05:20:47.714Z,102580.75
2023-04-18T05:21:19.335Z,102591.09
2023-04-18T05:21:50.988Z,102586.75
2023-04-18T05:22:23.382Z,102585.78
2023-04-18T05:22:54.889Z,102584.81
2023-04-18T05:23:26.905Z,102583.97
2023-04-18T05:23:58.459Z,102582.28
2023-04-18T05:24:31.785Z,102590.78
2023-04-18T05:25:03.660Z,102593.16
2023-04-18T05:25:35.405Z,102588.84
2023-04-18T05:26:07.238Z,102587.03
2023-04-18T05:26:38.904Z,102592.16
2023-04-18T05:27:10.504Z,102583.53
2023-04-18T05:27:43.333Z,102589.66
2023-04-18T05:28:15.195Z,102594.66
2023-04-18T05:28:46.735Z,102584.91
2023-04-18T05:29:18.275Z,102591.88
2023-04-18T05:29:50.322Z,102597.84
2023-04-18T05:30:21.982Z,102592.16
2023-04-18T05:31:00.958Z,102594.81
2023-04-18T05:31:32.615Z,102593.84
2023-04-18T05:32:04.378Z,102603.16
2023-04-18T05:32:35.992Z,102592.84
2023-04-18T05:33:07.900Z,102590.22
2023-04-18T05:33:39.514Z,102596.88
2023-04-18T05:34:11.226Z,102586.00
2023-04-18T05:34:43.008Z,102594.91
2023-04-18T05:35:14.597Z,102593.94
2023-04-18T05:35:46.494Z,102598.94
2023-04-18T05:36:18.050Z,102585.72
2023-04-18T05:36:49.605Z,102588.34
2023-04-18T05:37:22.317Z,102589.03
2023-04-18T05:37:53.871Z,102596.28
2023-04-18T05:38:25.558Z,102598.50
2023-04-18T05:38:57.077Z,102597.38
2023-04-18T05:39:28.613Z,102597.13
2023-04-18T05:40:00.914Z,102606.88
2023-04-18T05:40:32.802Z,102593.78
2023-04-18T05:41:04.422Z,102595.72
2023-04-18T05:41:36.038Z,102594.03
2023-04-18T05:42:07.748Z,102602.81
2023-04-18T05:42:39.383Z,102596.53
2023-04-18T05:43:11.137Z,102600.16
2023-04-18T05:43:44.475Z,102604.63
2023-04-18T05:44:21.460Z,102607.69
2023-04-18T05:44:53.210Z,102608.53
2023-04-18T05:45:24.754Z,102598.09
2023-04-18T05:45:57.889Z,102600.75
2023-04-18T05:46:32.457Z,102610.34
2023-04-18T05:47:06.268Z,102612.16
2023-04-18T05:47:37.923Z,102607.41
2023-04-18T05:48:09.630Z,102612.41
2023-04-18T05:48:41.273Z,102604.47
2023-04-18T05:49:13.117Z,102605.97
2023-04-18T05:49:44.771Z,102605.97
2023-04-18T05:50:16.457Z,102608.47
2023-04-18T05:50:48.103Z,102608.34
2023-04-18T05:51:19.635Z,102617.94
2023-04-18T05:51:52.824Z,102608.19
2023-04-18T05:52:26.095Z,102607.91
2023-04-18T05:52:59.280Z,102610.53
2023-04-18T05:53:30.858Z,102607.06
2023-04-18T05:54:02.556Z,102613.19
2023-04-18T05:54:34.181Z,102613.72
2023-04-18T05:55:06.765Z,102615.41
2023-04-18T05:55:40.412Z,102610.25
2023-04-18T05:56:12.051Z,102609.25
2023-04-18T05:56:43.828Z,102608.28
2023-04-18T05:57:15.970Z,102610.78
2023-04-18T05:57:47.682Z,102608.00
2023-04-18T05:58:19.252Z,102612.72
2023-04-18T05:58:51.402Z,102613.41
2023-04-18T05:59:23.175Z,102610.75
2023-04-18T05:59:54.761Z,102614.38
2023-04-18T06:00:26.915Z,102611.75
2023-04-18T06:00:58.534Z,102615.91
2023-04-18T06:01:30.119Z,102609.47
2023-04-18T06:02:01.991Z,102610.63
2023-04-18T06:02:33.695Z,102608.25
2023-04-18T06:03:07.192Z,102605.75
2023-04-18T06:03:41.759Z,102609.25
2023-04-18T06:04:14.113Z,102614.25
2023-04-18T06:04:46.325Z,102615.06
2023-04-18T06:05:18.320Z,102613.69
2023-04-18T06:05:50.291Z,102615.75
2023-04-18T06:06:22.016Z,102622.03
2023-04-18T06:06:53.687Z,102615.31
2023-04-18T06:07:25.572Z,102613.59
2023-04-18T06:07:57.341Z,102614.41
2023-04-18T06:08:28.944Z,102616.09
2023-04-18T06:09:00.987Z,102623.31
2023-04-18T06:09:32.721Z,102616.13
2023-04-18T06:10:07.765Z,102617.03
2023-04-18T06:10:39.458Z,102624.25
2023-04-18T06:11:11.061Z,102608.50
2023-04-18T06:11:42.683Z,102610.34
2023-04-18T06:12:14.260Z,102617.31
2023-04-18T06:12:46.148Z,102622.03
2023-04-18T06:13:17.832Z,102620.25
2023-04-18T06:13:49.399Z,102625.94
2023-04-18T06:14:20.923Z,102627.66
2023-04-18T06:14:52.542Z,102620.78
2023-04-18T06:15:24.379Z,102627.44
2023-04-18T06:15:56.130Z,102627.16
2023-04-18T06:16:27.791Z,102621.84